• Join FlightAware (Why Join?)
  • Login
  • US Flag 
06:06AM EDT


 

Airport Tracker/Info


-or-


 

Live Flight TrackerFlight Track Log ✈ ARG1502 ✈ 15-Oct-2013 ✈ SABE / AEP - SACO / COR

Flight Track Log - Related Links

Times and Time Zones

All times are in EDT time to prevent confusion due to time zone crossing. See the ARG1502 flight status page for this flight to view local times or setup timezone preferences in your user account.

Time Position Orientation Groundspeed Altitude Reporting Facility
EDT Latitude Longitude Course Direction KTS MPH feet Rate Location/Type
07:36AM -34.5600 -58.3700 109° East 226 260 1,800  Level FlightAware
07:36AM -34.5480 -58.3600 34° Northeast 228 262 2,700 3,060 Climbing FlightAware
07:36AM -34.5270 -58.3430 34° Northeast 259 298 3,700 2,280 Climbing FlightAware
07:37AM -34.5060 -58.3260 34° Northeast 295 339 4,300 2,040 Climbing FlightAware
07:37AM -34.4850 -58.3140 25° Northeast 323 372 4,900 1,980 Climbing FlightAware
07:37AM -34.4730 -58.3110 12° North 335 386 5,100 1,800 Climbing FlightAware
07:37AM -34.4660 -58.3100 North 340 391 5,300 3,180 Climbing FlightAware
07:38AM -34.4300 -58.3220 345° North 346 398 6,600 3,480 Climbing FlightAware
07:38AM -34.4060 -58.3400 328° Northwest 350 403 7,700 3,840 Climbing FlightAware
07:38AM -34.3840 -58.3570 327° Northwest 353 406 8,800 3,660 Climbing FlightAware
07:39AM -34.3350 -58.3980 325° Northwest 365 420 10,900 3,300 Climbing FlightAware
07:39AM -34.3110 -58.4280 314° West 372 428 11,900 3,240 Climbing FlightAware
07:40AM -34.2790 -58.4820 306° West 373 429 13,800 3,420 Climbing FlightAware
07:40AM -34.2430 -58.5440 305° West 379 436 15,900 3,780 Climbing FlightAware
07:41AM -34.2070 -58.6050 306° West 374 430 18,300 3,660 Climbing FlightAware
07:41AM -34.1710 -58.6660 305° West 376 433 20,300 3,000 Climbing FlightAware
07:42AM -34.1360 -58.7270 305° West 382 440 21,900 2,580 Climbing FlightAware
07:43AM -34.0970 -58.7930 305° West 395 455 23,400 1,800 Climbing FlightAware
07:43AM -34.0640 -58.8500 305° West 415 478 24,000 540 Climbing FlightAware
07:44AM -34.0270 -58.9140 305° West 425 489 24,000  Level FlightAware
07:44AM -33.9800 -58.9930 306° West 425 489 24,000  Level FlightAware
07:45AM -33.9420 -59.0590 305° West 426 490 24,000  Level FlightAware
07:45AM -33.9040 -59.1230 306° West 426 490 24,000  Level FlightAware
07:46AM -33.8650 -59.1900 305° West 426 490 24,000  Level FlightAware
07:47AM -33.8220 -59.2630 305° West 433 498 24,000  Level FlightAware
07:47AM -33.7860 -59.3230 306° West 437 503 24,000  Level FlightAware
07:48AM -33.7420 -59.3980 305° West 439 505 24,000  Level FlightAware
07:48AM -33.7000 -59.4680 306° West 440 506 24,000  Level FlightAware
07:49AM -33.6570 -59.5400 306° West 442 509 24,000  Level FlightAware
07:50AM -33.6200 -59.6010 306° West 443 510 24,000  Level FlightAware
07:50AM -33.5720 -59.6820 305° West 441 507 24,000  Level FlightAware
07:51AM -33.5370 -59.7410 305° West 437 503 24,000  Level FlightAware
07:51AM -33.4920 -59.8160 306° West 437 503 24,000  Level FlightAware
07:52AM -33.4500 -59.8860 306° West 437 503 24,000  Level FlightAware
07:53AM -33.4100 -59.9530 306° West 438 504 24,000  Level FlightAware
07:53AM -33.3730 -60.0130 306° West 436 502 24,000  Level FlightAware
07:54AM -33.3360 -60.0770 305° West 436 502 24,000  Level FlightAware
07:54AM -33.3000 -60.1380 305° West 436 502 24,000  Level FlightAware
07:55AM -33.2650 -60.1980 305° West 436 502 24,000  Level FlightAware
07:56AM -33.1970 -60.3050 307° West 431 496 24,000  Level FlightAware
07:56AM -33.1620 -60.3650 305° West 431 496 24,000  Level FlightAware
07:57AM -33.1290 -60.4210 305° West 431 496 24,000  Level FlightAware
07:57AM -33.0940 -60.4810 305° West 431 496 24,000  Level FlightAware
07:58AM -33.0590 -60.5400 305° West 431 496 24,000  Level FlightAware
07:59AM -33.0240 -60.6000 305° West 431 496 24,000  Level FlightAware
08:01AM -32.9386 -60.7900 298° West  Level Estimated
08:02AM -32.8947 -60.8872 298° West  Level Estimated
08:03AM -32.8507 -60.9844 298° West  Level Estimated
08:04AM -32.8066 -61.0815 298° West  Level Estimated
08:05AM -32.7625 -61.1785 298° West  Level Estimated
08:06AM -32.7183 -61.2753 298° West  Level Estimated
08:07AM -32.6740 -61.3721 299° West  Level Estimated
08:08AM -32.6297 -61.4688 299° West  Level Estimated
08:09AM -32.5852 -61.5654 299° West  Level Estimated
08:09AM -32.1760 -61.8200 299° West 433 498 24,000  Level FlightAware
08:10AM -32.1310 -61.8890 308° West 433 498 24,000  Level FlightAware
08:10AM -32.1060 -61.9460 297° West 433 498 24,000  Level FlightAware
08:11AM -32.0790 -62.0270 291° West 433 498 24,000  Level FlightAware
08:12AM -32.0480 -62.1150 293° West 430 495 24,000  Level FlightAware
08:12AM -32.0250 -62.1840 291° West 430 495 24,000  Level FlightAware
08:13AM -31.9970 -62.2670 292° West 429 494 24,000  Level FlightAware
08:13AM -31.9700 -62.3440 292° West 427 491 24,000  Level FlightAware
08:14AM -31.9440 -62.4200 292° West 408 470 24,000  Level FlightAware
08:15AM -31.9210 -62.4870 292° West 407 468 24,000  Level FlightAware
08:15AM -31.8970 -62.5560 292° West 406 467 24,000  Level FlightAware
08:16AM -31.8740 -62.6220 292° West 407 468 24,000  Level FlightAware
08:16AM -31.8450 -62.7080 292° West 407 468 24,000  Level FlightAware
08:17AM -31.8220 -62.7740 292° West 407 468 24,000  Level FlightAware
08:17AM -31.7960 -62.8470 293° West 409 471 24,000  Level FlightAware
08:18AM -31.7730 -62.9120 293° West 415 478 24,000 -360 Level FlightAware
08:19AM -31.7460 -62.9900 292° West 414 476 23,600 -840 Descending FlightAware
08:19AM -31.7190 -63.0670 292° West 410 472 23,000 -1,200 Descending FlightAware
08:20AM -31.6940 -63.1380 292° West 408 470 22,200 -1,980 Descending FlightAware
08:20AM -31.6690 -63.2090 292° West 400 460 20,700 -2,700 Descending FlightAware
08:21AM -31.6460 -63.2750 292° West 393 452 19,200 -2,940 Descending FlightAware
08:22AM -31.6230 -63.3410 292° West 390 449 17,500 -3,480 Descending FlightAware
08:22AM -31.5980 -63.4120 292° West 398 458 15,200 -2,880 Descending FlightAware
08:23AM -31.5710 -63.4850 293° West 378 435 14,000 -2,220 Descending FlightAware
08:23AM -31.5470 -63.5530 292° West 369 425 12,500 -2,580 Descending FlightAware
08:24AM -31.5280 -63.6070 292° West 363 418 11,200 -2,700 Descending FlightAware
08:24AM -31.5100 -63.6590 292° West 362 417 9,900 -2,700 Descending FlightAware
08:25AM -31.4930 -63.7050 293° West 359 413 8,800 -2,820 Descending FlightAware
08:25AM -31.4800 -63.7410 293° West 361 415 7,800 -2,580 Descending FlightAware
08:25AM -31.4670 -63.7770 293° West 354 407 7,100 -2,340 Descending FlightAware
08:26AM -31.4590 -63.8020 291° West 351 404 6,500 -2,520 Descending FlightAware
08:26AM -31.4470 -63.8370 292° West 348 400 5,700 -2,340 Descending FlightAware
08:26AM -31.4400 -63.8760 282° West 348 400 4,900 -2,100 Descending FlightAware
08:27AM -31.4370 -63.9070 276° West 341 392 4,400 -1,200 Descending FlightAware
08:27AM -31.4340 -63.9430 276° West 319 367 4,200 -780 Descending FlightAware
08:27AM -31.4300 -63.9760 278° West 306 352 3,900 -600 Descending FlightAware
08:28AM -31.4250 -64.0070 281° West 287 330 3,800 -600 Descending FlightAware
08:28AM -31.4180 -64.0420 283° West 271 312 3,500 -720 Descending FlightAware
08:28AM -31.4140 -64.0690 280° West 261 300 3,300 -420 Descending FlightAware
08:29AM -31.4120 -64.0860 278° West 252 290 3,300  Level FlightAware
08:29AM -31.4090 -64.1140 277° West 228 262 3,300 -180 Level FlightAware
08:29AM -31.4060 -64.1410 277° West 202 232 3,200 -300 Descending FlightAware
08:30AM -31.4040 -64.1610 277° West 187 215 3,100 -480 Descending FlightAware
08:30AM -31.4020 -64.1810 277° West 168 193 2,900 -660 Descending FlightAware
08:30AM -31.3990 -64.1950 284° West 161 185 2,700 -900 Descending FlightAware
08:30AM -31.3930 -64.2020 315° West 155 178 2,500 -900 Descending FlightAware
08:31AM -31.3870 -64.2050 337° Northwest 147 169 2,400 -420 Descending FlightAware
08:31AM -31.3820 -64.2060 350° North 139 160 2,400 -660 Level FlightAware
08:31AM -31.3700 -64.2070 356° North 137 158 2,100 -840 Descending FlightAware
08:31AM -31.3590 -64.2080 356° North 141 162 1,900 -780 Descending FlightAware
08:32AM -31.3440 -64.2080 360° North 145 167 1,600 -660 Descending FlightAware
08:32AM -31.3270 -64.2080 360° North 149 171 1,400 -480 Descending FlightAware
08:32AM -31.3140 -64.2080 360° North 110 127 -4,020 Descending FlightAware